Maryville, TN (37803)

2:54 AM EST on January 26, 2015 (GMT -0500)
Maryville | Change Station
CLOSE
Current Station
Personal Weather Station
Location: Maryville, TN
Elevation: 962 ft
Nearby Weather Stations

Elev 962 ft 35.74 °N, 83.97 °W | Updated 47 seconds ago

Overcast
Overcast
43.9 °F
Feels Like 44 °F
N
0.0
Wind Variable Wind from South
Gusts 0.0 mph

Today
High -- | Low -- °F
--% Chance of Precip.
Yesterday
High -- | Low -- °F
Precip. -- in
7:40 AM 5:56 PM
Waxing Crescent, 40% visible
Pressure 29.67 in
Visibility 8.0 miles
Clouds Mostly Cloudy 2800 ft
Overcast 3500 ft
Windchill 44 °F
Dew Point 36 °F
Humidity 75%
Rainfall 0.08 in
Snow Depth Not available.
UV 0 out of 12
Pollen .30 out of 12
Air Quality Not available.
Flu Activity Not available.
SPECI KTYS 260727Z 21011KT 8SM RA BKN028 OVC035 06/05 A2967 RMK AO2 P0003 T00610050 $

More Conditions Fewer Conditions

Pressure 29.67 in
Visibility 8.0 miles
Clouds Mostly Cloudy 2800 ft
Overcast 3500 ft
Windchill 44 °F
Dew Point 36 °F
Humidity 75%
Rainfall 0.08 in
Snow Depth Not available.
UV 0 out of 12
Pollen .30 out of 12
Air Quality Not available.
Flu Activity Not available.
SPECI KTYS 260727Z 21011KT 8SM RA BKN028 OVC035 06/05 A2967 RMK AO2 P0003 T00610050 $

More Conditions Fewer Conditions

10-Day Weather Forecast

Almanac

Astronomy

Jan. 26, 2015 Rise Set
Actual Time
Civil Twilight
Nautical Twilight
Astronomical Twilight
Moon
Length of Visible Light
Length of Day
Tomorrow will be .
, % of the Moon is Illuminated

Today's Extremes

State Highs State Lows

Community

WunderPhotos

Upload Photos

1,790,155 photos uploaded!

WunderBlogs® & News

Nearby

Air Quality

  Air Quality AQ Index Pollutant
Not available.

Snow Depth

Station Depth Elevation

Earthquake Activity

City Distance Mag. Time & Date
Minimum magnitude displayed is 2.5.

Coastal Water Temperatures

Place Temperature

Nearby Weather Stations